PST: 12:46 MST: 13:46 CST: 14:46 EST: 15:46 LDN: 20:46 UTC: 19:46
User Agent: CCBot/2.0 (http://commoncrawl.org/faq/)
IP Address: 54.167.196.208
Hostname: ec2-54-167-196-208.compute-1.amazonaws.com

METAR:
KBFI 201853Z VRB04KT 10SM SCT170 14/03 A3023 RMK AO2 SLP236 T01390028
KBFI 201753Z VRB05KT 10SM SCT130 BKN200 12/04 A3025 RMK AO2 SLP242 T01220039 10128 20061 58006
KBFI 201653Z 18004KT 10SM FEW120 BKN250 12/04 A3025 RMK AO2 SLP244 T01170044
KBFI 201553Z 13005KT 10SM SCT130 09/04 A3027 RMK AO2 SLP248 T00940039

TAF:
KBFI 201720Z 2018/2118 18006KT P6SM SCT120 BKN250
FM 210000 23007KT P6SM BKN070 OVC150
FM 210900 18012G18KT P6SM -RA BKN025 OVC050
FM 211200 20014G22KT P6SM -SHRA BKN020 BKN040
FM 211600 23008KT P6SM VCSH SCT030 BKN050

KBFI 201720Z 2018/2118 18006KT P6SM SCT120 BKN250
FM 210000 23007KT P6SM BKN070 OVC150
FM 210900 18012G18KT P6SM -RA BKN025 OVC050
FM 211200 20014G22KT P6SM -SHRA BKN020 BKN040
FM 211600 23008KT P6SM VCSH SCT030 BKN050

KBFI 201121Z 2012/2112 18003KT P6SM BKN120
FM 201800 21006KT P6SM BKN120 OVC200
FM 210400 23007KT P6SM SCT050 OVC100
FM 210900 19012G18KT P6SM -RA BKN028 OVC050

KBFI 201121Z 2012/2112 18003KT P6SM BKN120
FM 201800 21006KT P6SM BKN120 OVC200
FM 210400 23007KT P6SM SCT050 OVC100
FM 210900 19012G18KT P6SM -RA BKN028 OVC050

KBFI 200523Z 2006/2106 VRB03KT P6SM FEW030 SCT050 OVC150
FM 200800 VRB03KT P6SM SCT060 OVC150
FM 201800 20006KT P6SM FEW050 BKN120 OVC200
FM 210400 17006KT P6SM SCT050 OVC100

KBFI 200523Z 2006/2106 VRB03KT P6SM FEW030 SCT050 OVC150
FM 200800 VRB03KT P6SM SCT060 OVC150
FM 201800 20006KT P6SM FEW050 BKN120 OVC200
FM 210400 17006KT P6SM SCT050 OVC100

KBFI 192329Z 2000/2024 30003KT P6SM FEW030 FEW050 BKN200
FM 200200 VRB03KT P6SM FEW030 SCT050 OVC150
FM 200600 VRB03KT P6SM SCT030 SCT050 OVC120
FM 201800 17006KT P6SM FEW050 BKN120 OVC200

KBFI 191733Z 1918/2018 28005KT P6SM SCT200
FM 200600 VRB03KT P6SM BKN200
FM 201200 17003KT P6SM SCT005 BKN140